createdAt,value
2022-07-28T00:00:39.808Z,29.50
2022-07-28T00:03:46.215Z,29.69
2022-07-28T00:06:49.536Z,29.60
2022-07-28T00:09:56.911Z,29.81
2022-07-28T00:13:03.939Z,29.85
2022-07-28T00:16:10.797Z,29.77
2022-07-28T00:19:16.155Z,29.84
2022-07-28T00:22:19.663Z,29.92
2022-07-28T00:25:23.375Z,29.99
2022-07-28T00:28:26.680Z,30.12
2022-07-28T00:31:30.104Z,30.04
2022-07-28T00:34:35.222Z,29.96
2022-07-28T00:37:40.373Z,29.82
2022-07-28T00:41:01.457Z,29.96
2022-07-28T00:44:07.576Z,29.83
2022-07-28T00:47:11.995Z,29.61
2022-07-28T00:50:18.505Z,29.45
2022-07-28T00:53:22.041Z,29.59
2022-07-28T00:56:25.587Z,29.62
2022-07-28T00:59:29.033Z,29.57
2022-07-28T01:02:32.721Z,28.83
2022-07-28T01:05:47.237Z,29.06
2022-07-28T01:09:02.699Z,29.23
2022-07-28T01:12:13.130Z,28.97
2022-07-28T01:15:24.483Z,29.40
2022-07-28T01:18:34.008Z,29.19
2022-07-28T01:21:42.802Z,29.14
2022-07-28T01:24:56.041Z,28.46
2022-07-28T01:28:17.364Z,28.31
2022-07-28T01:31:26.980Z,28.48
2022-07-28T01:34:34.468Z,28.78
2022-07-28T01:37:44.713Z,28.41
2022-07-28T01:40:50.216Z,28.47
2022-07-28T01:43:58.766Z,28.13
2022-07-28T01:47:07.611Z,28.69
2022-07-28T01:50:12.632Z,28.37
2022-07-28T01:53:18.220Z,28.27
2022-07-28T01:56:24.045Z,28.63
2022-07-28T01:59:29.687Z,28.53
2022-07-28T02:02:39.246Z,28.79
2022-07-28T02:05:43.725Z,28.72
2022-07-28T02:08:50.215Z,28.40
2022-07-28T02:11:55.213Z,28.78
2022-07-28T02:14:59.628Z,28.74
2022-07-28T02:18:05.794Z,28.64
2022-07-28T02:21:10.941Z,28.63
2022-07-28T02:24:15.566Z,28.84
2022-07-28T02:27:23.808Z,28.81
2022-07-28T02:30:35.157Z,28.68
2022-07-28T02:34:00.313Z,28.81
2022-07-28T02:37:06.924Z,28.76
2022-07-28T02:40:16.248Z,28.57
2022-07-28T02:43:25.668Z,28.73
2022-07-28T02:46:52.919Z,28.29
2022-07-28T02:50:01.216Z,28.18
2022-07-28T02:53:15.476Z,28.45
2022-07-28T02:56:19.816Z,28.69
2022-07-28T02:59:24.677Z,28.53
2022-07-28T03:02:30.929Z,28.64
2022-07-28T03:05:36.550Z,28.68
2022-07-28T03:08:40.151Z,28.84
2022-07-28T03:11:53.688Z,28.85
2022-07-28T03:14:57.384Z,28.83
2022-07-28T03:18:00.825Z,28.90
2022-07-28T03:21:05.806Z,28.71
2022-07-28T03:24:11.849Z,28.72
2022-07-28T03:27:22.217Z,28.66
2022-07-28T03:30:30.559Z,28.81
2022-07-28T03:33:34.853Z,28.89
2022-07-28T03:36:44.004Z,28.60
2022-07-28T03:39:49.509Z,29.02
2022-07-28T03:42:54.824Z,29.28
2022-07-28T03:45:58.198Z,29.21
2022-07-28T03:49:01.754Z,29.29
2022-07-28T03:52:06.875Z,29.50
2022-07-28T03:55:11.198Z,29.84
2022-07-28T03:58:14.570Z,29.99
2022-07-28T04:01:18.979Z,30.12
2022-07-28T04:04:22.353Z,30.34
2022-07-28T04:07:27.186Z,30.42
2022-07-28T04:10:30.710Z,30.21
2022-07-28T04:13:36.718Z,30.58
2022-07-28T04:16:40.148Z,29.95
2022-07-28T04:19:43.552Z,29.99
2022-07-28T04:22:49.168Z,29.97
2022-07-28T04:25:52.557Z,29.86
2022-07-28T04:28:55.998Z,30.07
2022-07-28T04:31:59.360Z,30.22
2022-07-28T04:35:02.762Z,30.14
2022-07-28T04:38:07.898Z,29.68
2022-07-28T04:41:11.262Z,30.00
2022-07-28T04:44:15.185Z,30.11
2022-07-28T04:47:18.832Z,29.94
2022-07-28T04:50:22.442Z,29.82
2022-07-28T04:53:35.370Z,30.36
2022-07-28T04:56:38.739Z,30.51
2022-07-28T04:59:42.065Z,30.31
2022-07-28T05:02:48.093Z,30.71
2022-07-28T05:05:54.443Z,31.06
2022-07-28T05:08:59.737Z,30.85
2022-07-28T05:12:03.068Z,31.05
2022-07-28T05:15:07.163Z,31.31
2022-07-28T05:18:10.431Z,31.34
2022-07-28T05:21:13.750Z,30.41
2022-07-28T05:24:20.017Z,31.10
2022-07-28T05:27:23.369Z,31.53
2022-07-28T05:30:26.898Z,31.22
2022-07-28T05:33:31.817Z,31.59
2022-07-28T05:36:36.676Z,31.72
2022-07-28T05:39:41.563Z,31.39
2022-07-28T05:42:47.409Z,31.49
2022-07-28T05:45:50.979Z,31.36
2022-07-28T05:48:54.461Z,31.75
2022-07-28T05:51:57.856Z,31.39
2022-07-28T05:55:02.820Z,31.86
2022-07-28T05:58:06.300Z,31.60
2022-07-28T06:01:09.858Z,32.04
2022-07-28T06:04:29.275Z,32.30
2022-07-28T06:07:42.873Z,31.98
2022-07-28T06:11:05.665Z,32.38
2022-07-28T06:14:09.104Z,32.53
2022-07-28T06:17:14.967Z,32.41
2022-07-28T06:20:18.317Z,32.36
2022-07-28T06:23:23.616Z,33.14
2022-07-28T06:26:28.428Z,33.41
2022-07-28T06:29:31.933Z,33.65
2022-07-28T06:32:35.174Z,33.73
2022-07-28T06:35:44.952Z,33.77
2022-07-28T06:38:54.480Z,33.43
2022-07-28T06:41:59.223Z,33.83
2022-07-28T06:45:02.544Z,34.40
2022-07-28T06:48:08.083Z,34.28
2022-07-28T06:51:11.549Z,34.81
2022-07-28T06:54:15.139Z,35.03
2022-07-28T06:57:23.051Z,35.03
2022-07-28T07:00:36.647Z,35.07
2022-07-28T07:03:40.071Z,35.02
2022-07-28T07:06:43.666Z,35.25
2022-07-28T07:09:47.291Z,35.33
2022-07-28T07:12:52.001Z,35.31
2022-07-28T07:15:55.440Z,35.68
2022-07-28T07:18:58.862Z,35.35
2022-07-28T07:22:02.200Z,35.23
2022-07-28T07:25:10.490Z,35.55
2022-07-28T07:28:15.176Z,35.83
2022-07-28T07:31:18.539Z,35.57
2022-07-28T07:34:21.955Z,36.18
2022-07-28T07:37:25.688Z,36.12
2022-07-28T07:40:29.060Z,36.29
2022-07-28T07:43:33.790Z,36.20
2022-07-28T07:46:38.574Z,36.48
2022-07-28T07:49:46.079Z,36.48
2022-07-28T07:52:50.812Z,36.47
2022-07-28T07:55:54.316Z,36.41
2022-07-28T07:58:59.269Z,35.92
2022-07-28T08:02:02.785Z,35.81
2022-07-28T08:05:07.013Z,36.00
2022-07-28T08:08:11.639Z,35.88
2022-07-28T08:11:14.973Z,36.20
2022-07-28T08:14:19.679Z,36.24
2022-07-28T08:17:26.159Z,35.76
2022-07-28T08:20:30.026Z,36.23
2022-07-28T08:23:33.337Z,36.50
2022-07-28T08:26:36.694Z,36.69
2022-07-28T08:29:41.417Z,36.50
2022-07-28T08:32:44.763Z,36.45
2022-07-28T08:36:01.332Z,36.31
2022-07-28T08:39:05.487Z,36.66
2022-07-28T08:42:13.500Z,36.44
2022-07-28T08:45:20.140Z,36.72
2022-07-28T08:48:24.212Z,36.75
2022-07-28T08:51:29.187Z,37.23
2022-07-28T08:54:33.831Z,37.37
2022-07-28T08:57:39.523Z,37.34
2022-07-28T09:00:44.333Z,36.97
2022-07-28T09:03:48.103Z,37.11
2022-07-28T09:06:51.594Z,37.11
2022-07-28T09:09:57.446Z,37.64
2022-07-28T09:13:06.231Z,37.36
2022-07-28T09:16:11.426Z,37.53
2022-07-28T09:19:14.781Z,37.51
2022-07-28T09:22:18.150Z,37.68
2022-07-28T09:25:22.321Z,38.01
2022-07-28T09:28:26.111Z,37.13
2022-07-28T09:31:31.692Z,37.51
2022-07-28T09:34:41.876Z,37.46
2022-07-28T09:37:45.323Z,37.35
2022-07-28T09:40:59.708Z,37.51
2022-07-28T09:44:03.035Z,36.74
2022-07-28T09:47:23.277Z,36.63
2022-07-28T09:50:30.460Z,36.99
2022-07-28T09:53:33.723Z,37.36
2022-07-28T09:56:37.793Z,37.41
2022-07-28T09:59:43.188Z,37.72
2022-07-28T10:02:52.253Z,37.36
2022-07-28T10:05:56.922Z,36.89
2022-07-28T10:09:01.900Z,37.41
2022-07-28T10:12:19.272Z,37.63
2022-07-28T10:15:36.934Z,37.66
2022-07-28T10:18:41.948Z,38.06
2022-07-28T10:21:45.929Z,37.80
2022-07-28T10:24:52.961Z,37.71
2022-07-28T10:27:59.372Z,37.73
2022-07-28T10:31:04.176Z,37.40
2022-07-28T10:34:16.021Z,37.66
2022-07-28T10:37:22.740Z,37.53
2022-07-28T10:40:29.894Z,37.37
2022-07-28T10:43:33.656Z,37.73
2022-07-28T10:46:38.913Z,37.14
2022-07-28T10:49:43.736Z,37.26
2022-07-28T10:52:49.901Z,37.06
2022-07-28T10:56:01.951Z,37.18
2022-07-28T10:59:13.433Z,37.05
2022-07-28T11:02:52.318Z,37.01
2022-07-28T11:05:57.229Z,37.34
2022-07-28T11:09:24.247Z,37.44
2022-07-28T11:12:49.597Z,37.66
2022-07-28T11:15:54.066Z,37.71
2022-07-28T11:19:36.839Z,37.44
2022-07-28T11:22:34.167Z,37.44
2022-07-28T11:25:37.861Z,37.18
2022-07-28T11:29:20.297Z,37.12
2022-07-28T11:32:23.698Z,37.54
2022-07-28T11:35:31.871Z,37.15
2022-07-28T11:38:36.603Z,37.22
2022-07-28T11:41:40.008Z,37.26
2022-07-28T11:44:43.944Z,37.67
2022-07-28T11:47:47.331Z,37.83
2022-07-28T11:51:11.744Z,37.84
2022-07-28T11:54:18.914Z,37.34
2022-07-28T11:57:26.020Z,37.58
2022-07-28T12:00:29.344Z,37.80
2022-07-28T12:03:48.907Z,38.19
2022-07-28T12:06:53.840Z,38.12
2022-07-28T12:09:59.188Z,37.96
2022-07-28T12:13:04.819Z,38.12
2022-07-28T12:16:08.228Z,37.77
2022-07-28T12:19:12.452Z,37.76
2022-07-28T12:22:16.022Z,37.63
2022-07-28T12:25:20.810Z,37.69
2022-07-28T12:28:29.672Z,37.50
2022-07-28T12:31:34.144Z,37.14
2022-07-28T12:34:38.176Z,36.78
2022-07-28T12:37:43.183Z,36.35
2022-07-28T12:40:48.227Z,36.08
2022-07-28T12:43:52.526Z,35.76
2022-07-28T12:46:55.879Z,35.57
2022-07-28T12:50:14.540Z,35.40
2022-07-28T12:53:22.003Z,35.49
2022-07-28T12:56:26.816Z,35.49
2022-07-28T12:59:33.961Z,35.51
2022-07-28T13:02:38.154Z,35.50
2022-07-28T13:05:59.025Z,35.60
2022-07-28T13:09:02.509Z,35.53
2022-07-28T13:12:19.337Z,35.39
2022-07-28T13:15:22.691Z,35.36
2022-07-28T13:18:40.424Z,35.14
2022-07-28T13:21:58.486Z,35.17
2022-07-28T13:25:03.856Z,35.40
2022-07-28T13:28:23.824Z,35.31
2022-07-28T13:31:27.336Z,35.26
2022-07-28T13:34:30.569Z,35.35
2022-07-28T13:37:33.976Z,35.26
2022-07-28T13:40:37.355Z,35.09
2022-07-28T13:43:42.136Z,35.25
2022-07-28T13:46:51.734Z,35.31
2022-07-28T13:49:55.238Z,35.40
2022-07-28T13:52:59.346Z,34.95
2022-07-28T13:56:02.677Z,35.15
2022-07-28T13:59:10.244Z,35.27
2022-07-28T14:02:16.915Z,35.23
2022-07-28T14:05:21.047Z,35.24
2022-07-28T14:08:25.393Z,34.63
2022-07-28T14:11:29.027Z,33.73
2022-07-28T14:14:39.436Z,33.70
2022-07-28T14:17:51.520Z,33.76
2022-07-28T14:20:55.021Z,33.87
2022-07-28T14:23:58.411Z,33.50
2022-07-28T14:27:01.775Z,33.85
2022-07-28T14:30:08.199Z,33.81
2022-07-28T14:33:11.539Z,33.73
2022-07-28T14:36:14.897Z,33.69
2022-07-28T14:39:18.281Z,33.50
2022-07-28T14:42:21.598Z,33.25
2022-07-28T14:45:26.438Z,33.35
2022-07-28T14:48:30.995Z,33.24
2022-07-28T14:51:34.340Z,33.12
2022-07-28T14:54:38.428Z,33.01
2022-07-28T14:57:51.812Z,33.29
2022-07-28T15:00:58.880Z,33.64
2022-07-28T15:04:02.249Z,33.89
2022-07-28T15:07:05.637Z,34.08
2022-07-28T15:10:09.801Z,34.03
2022-07-28T15:13:13.115Z,33.68
2022-07-28T15:16:17.909Z,33.90
2022-07-28T15:19:21.969Z,33.66
2022-07-28T15:22:26.567Z,34.00
2022-07-28T15:25:30.136Z,34.25
2022-07-28T15:28:33.490Z,34.77
2022-07-28T15:31:38.290Z,34.41
2022-07-28T15:34:43.028Z,34.42
2022-07-28T15:37:46.344Z,34.75
2022-07-28T15:40:50.556Z,34.84
2022-07-28T15:43:57.572Z,34.84
2022-07-28T15:47:02.326Z,34.91
2022-07-28T15:50:07.742Z,34.88
2022-07-28T15:53:11.054Z,34.75
2022-07-28T15:56:14.607Z,34.94
2022-07-28T15:59:18.019Z,34.76
2022-07-28T16:02:22.901Z,34.46
2022-07-28T16:05:26.410Z,34.52
2022-07-28T16:08:29.700Z,34.51
2022-07-28T16:11:33.007Z,34.49
2022-07-28T16:14:36.870Z,34.31
2022-07-28T16:17:42.257Z,34.01
2022-07-28T16:20:45.693Z,34.04
2022-07-28T16:23:49.166Z,34.15
2022-07-28T16:26:52.796Z,33.99
2022-07-28T16:29:56.128Z,34.20
2022-07-28T16:33:01.491Z,34.19
2022-07-28T16:36:05.473Z,34.10
2022-07-28T16:39:09.579Z,33.41
2022-07-28T16:42:12.957Z,33.41
2022-07-28T16:45:17.117Z,33.26
2022-07-28T16:48:21.948Z,33.31
2022-07-28T16:51:25.363Z,32.96
2022-07-28T16:54:28.730Z,32.69
2022-07-28T16:57:32.058Z,32.72
2022-07-28T17:00:35.635Z,32.75
2022-07-28T17:03:40.908Z,32.34
2022-07-28T17:06:44.428Z,32.45
2022-07-28T17:09:47.705Z,32.12
2022-07-28T17:12:50.995Z,31.99
2022-07-28T17:15:54.678Z,32.21
2022-07-28T17:18:59.612Z,32.05
2022-07-28T17:22:06.280Z,31.86
2022-07-28T17:25:28.486Z,31.83
2022-07-28T17:28:33.766Z,31.67
2022-07-28T17:31:37.592Z,31.73
2022-07-28T17:34:42.493Z,31.76
2022-07-28T17:37:45.827Z,31.67
2022-07-28T17:40:51.268Z,31.77
2022-07-28T17:43:54.629Z,31.85
2022-07-28T17:46:58.007Z,31.88
2022-07-28T17:50:02.828Z,31.89
2022-07-28T17:53:06.604Z,31.99
2022-07-28T17:56:10.028Z,31.83
2022-07-28T17:59:13.717Z,31.72
2022-07-28T18:02:17.339Z,31.66
2022-07-28T18:05:22.161Z,31.39
2022-07-28T18:08:26.386Z,31.19
2022-07-28T18:11:30.119Z,31.26
2022-07-28T18:14:33.393Z,31.06
2022-07-28T18:17:36.699Z,31.14
2022-07-28T18:21:00.336Z,31.28
2022-07-28T18:24:04.046Z,31.31
2022-07-28T18:27:07.461Z,31.40
2022-07-28T18:30:12.576Z,31.46
2022-07-28T18:33:17.716Z,31.62
2022-07-28T18:36:22.578Z,31.58
2022-07-28T18:39:25.949Z,31.56
2022-07-28T18:42:32.090Z,31.35
2022-07-28T18:45:35.769Z,31.57
2022-07-28T18:48:39.189Z,31.64
2022-07-28T18:51:45.746Z,31.70
2022-07-28T18:54:49.238Z,31.39
2022-07-28T18:57:52.562Z,31.39
2022-07-28T19:00:55.868Z,31.24
2022-07-28T19:03:59.215Z,31.14
2022-07-28T19:07:04.016Z,31.00
2022-07-28T19:10:10.848Z,30.73
2022-07-28T19:13:14.182Z,30.55
2022-07-28T19:16:19.084Z,30.74
2022-07-28T19:19:22.521Z,30.51
2022-07-28T19:22:27.291Z,30.75
2022-07-28T19:25:30.798Z,30.60
2022-07-28T19:28:34.427Z,30.76
2022-07-28T19:31:37.873Z,30.85
2022-07-28T19:34:43.050Z,30.90
2022-07-28T19:37:47.850Z,30.58
2022-07-28T19:40:51.253Z,30.40
2022-07-28T19:43:54.594Z,30.23
2022-07-28T19:46:58.497Z,30.37
2022-07-28T19:50:02.931Z,30.11
2022-07-28T19:53:07.705Z,30.13
2022-07-28T19:56:18.613Z,30.14
2022-07-28T19:59:23.070Z,30.02
2022-07-28T20:02:26.466Z,30.01
2022-07-28T20:05:29.747Z,30.11
2022-07-28T20:08:34.635Z,30.08
2022-07-28T20:11:39.094Z,30.07
2022-07-28T20:14:42.475Z,30.06
2022-07-28T20:17:45.892Z,29.87
2022-07-28T20:20:49.839Z,29.78
2022-07-28T20:23:57.120Z,29.55
2022-07-28T20:27:01.133Z,29.40
2022-07-28T20:30:04.912Z,29.64
2022-07-28T20:33:08.340Z,29.59
2022-07-28T20:36:11.756Z,29.64
2022-07-28T20:39:43.239Z,29.33
2022-07-28T20:42:39.903Z,29.30
2022-07-28T20:45:43.236Z,29.39
2022-07-28T20:48:46.613Z,29.45
2022-07-28T20:51:51.221Z,29.54
2022-07-28T20:54:56.433Z,29.29
2022-07-28T20:57:59.768Z,29.39
2022-07-28T21:01:03.798Z,29.50
2022-07-28T21:04:07.313Z,29.39
2022-07-28T21:07:14.720Z,29.04
2022-07-28T21:10:19.333Z,29.16
2022-07-28T21:13:22.921Z,29.15
2022-07-28T21:16:26.260Z,28.85
2022-07-28T21:19:29.501Z,28.97
2022-07-28T21:22:32.778Z,28.94
2022-07-28T21:25:37.483Z,28.70
2022-07-28T21:28:58.424Z,28.76
2022-07-28T21:32:05.425Z,28.74
2022-07-28T21:35:14.021Z,28.86
2022-07-28T21:38:17.562Z,28.79
2022-07-28T21:41:25.357Z,28.36
2022-07-28T21:44:28.640Z,28.36
2022-07-28T21:47:34.141Z,28.36
2022-07-28T21:50:38.184Z,28.50
2022-07-28T21:53:42.388Z,28.42
2022-07-28T21:56:47.877Z,28.60
2022-07-28T21:59:51.074Z,28.49
2022-07-28T22:02:54.430Z,28.18
2022-07-28T22:05:57.638Z,28.02
2022-07-28T22:09:00.795Z,28.16
2022-07-28T22:12:05.818Z,28.46
2022-07-28T22:15:09.432Z,28.28
2022-07-28T22:18:16.669Z,28.32
2022-07-28T22:21:20.190Z,28.32
2022-07-28T22:24:23.706Z,28.32
2022-07-28T22:27:28.432Z,28.15
2022-07-28T22:30:31.763Z,28.41
2022-07-28T22:33:34.963Z,28.49
2022-07-28T22:36:38.664Z,28.28
2022-07-28T22:39:42.112Z,28.09
2022-07-28T22:42:48.398Z,28.01
2022-07-28T22:45:51.921Z,27.96
2022-07-28T22:48:55.307Z,27.75
2022-07-28T22:51:58.630Z,27.87
2022-07-28T22:55:01.913Z,27.89
2022-07-28T22:58:06.626Z,27.51
2022-07-28T23:01:09.926Z,27.62
2022-07-28T23:04:14.806Z,27.65
2022-07-28T23:07:19.117Z,27.92
2022-07-28T23:10:22.870Z,27.86
2022-07-28T23:13:27.599Z,27.79
2022-07-28T23:16:31.010Z,27.89
2022-07-28T23:19:34.469Z,27.70
2022-07-28T23:22:38.065Z,27.65
2022-07-28T23:25:43.045Z,27.27
2022-07-28T23:28:47.770Z,27.23
2022-07-28T23:31:51.342Z,27.17
2022-07-28T23:34:54.595Z,27.24
2022-07-28T23:37:57.901Z,27.25
2022-07-28T23:41:01.150Z,27.05
2022-07-28T23:44:06.685Z,27.00
2022-07-28T23:47:11.156Z,27.14
2022-07-28T23:50:14.445Z,27.02
2022-07-28T23:53:17.779Z,27.23
2022-07-28T23:56:21.047Z,27.41
2022-07-28T23:59:26.115Z,27.18
